createdAt,value
2022-10-04T00:01:48.709Z,9.71
2022-10-04T00:04:21.407Z,9.70
2022-10-04T00:06:55.679Z,9.70
2022-10-04T00:09:26.422Z,9.69
2022-10-04T00:11:57.124Z,9.68
2022-10-04T00:14:30.480Z,9.67
2022-10-04T00:16:59.471Z,9.67
2022-10-04T00:19:39.911Z,9.66
2022-10-04T00:22:27.480Z,9.66
2022-10-04T00:25:26.357Z,9.66
2022-10-04T00:28:46.768Z,9.66
2022-10-04T00:31:23.914Z,9.66
2022-10-04T00:33:54.244Z,9.66
2022-10-04T00:36:46.680Z,9.67
2022-10-04T00:39:38.868Z,9.67
2022-10-04T00:42:28.357Z,9.67
2022-10-04T00:45:00.232Z,9.67
2022-10-04T00:47:33.166Z,9.67
2022-10-04T00:50:07.470Z,9.66
2022-10-04T00:52:40.654Z,9.67
2022-10-04T00:55:10.277Z,9.66
2022-10-04T00:57:42.195Z,9.65
2022-10-04T01:00:14.406Z,9.64
2022-10-04T01:02:52.448Z,9.64
2022-10-04T01:05:25.974Z,9.63
2022-10-04T01:07:58.019Z,9.63
2022-10-04T01:10:29.529Z,9.63
2022-10-04T01:13:05.994Z,9.64
2022-10-04T01:15:40.729Z,9.64
2022-10-04T01:18:15.040Z,9.63
2022-10-04T01:20:54.382Z,9.63
2022-10-04T01:23:40.073Z,9.62
2022-10-04T01:26:38.771Z,9.63
2022-10-04T01:29:12.810Z,9.63
2022-10-04T01:31:45.961Z,9.61
2022-10-04T01:34:18.960Z,9.60
2022-10-04T01:36:52.358Z,9.58
2022-10-04T01:39:22.699Z,9.58
2022-10-04T01:41:56.327Z,9.57
2022-10-04T01:44:30.261Z,9.57
2022-10-04T01:47:02.023Z,9.57
2022-10-04T01:49:33.125Z,9.56
2022-10-04T01:52:05.565Z,9.56
2022-10-04T01:54:36.388Z,9.57
2022-10-04T01:57:12.735Z,9.58
2022-10-04T01:59:46.564Z,9.57
2022-10-04T02:02:23.860Z,9.57
2022-10-04T02:04:54.732Z,9.57
2022-10-04T02:07:28.752Z,9.58
2022-10-04T02:09:59.337Z,9.57
2022-10-04T02:12:31.137Z,9.56
2022-10-04T02:15:01.299Z,9.57
2022-10-04T02:17:32.123Z,9.56
2022-10-04T02:20:01.975Z,9.55
2022-10-04T02:22:33.202Z,9.54
2022-10-04T02:25:03.151Z,9.54
2022-10-04T02:27:34.220Z,9.55
2022-10-04T02:30:06.934Z,9.53
2022-10-04T02:32:54.615Z,9.54
2022-10-04T02:35:25.199Z,9.54
2022-10-04T02:38:03.379Z,9.53
2022-10-04T02:40:35.449Z,9.53
2022-10-04T02:43:07.305Z,9.53
2022-10-04T02:45:42.135Z,9.52
2022-10-04T02:48:21.695Z,9.51
2022-10-04T02:50:52.686Z,9.51
2022-10-04T02:53:27.158Z,9.50
2022-10-04T02:55:56.712Z,9.48
2022-10-04T02:58:26.129Z,9.46
2022-10-04T03:00:57.518Z,9.46
2022-10-04T03:03:27.048Z,9.46
2022-10-04T03:06:00.888Z,9.45
2022-10-04T03:08:29.259Z,9.45
2022-10-04T03:10:59.149Z,9.45
2022-10-04T03:13:29.777Z,9.46
2022-10-04T03:15:58.732Z,9.45
2022-10-04T03:18:27.102Z,9.46
2022-10-04T03:20:57.880Z,9.47
2022-10-04T03:23:26.601Z,9.49
2022-10-04T03:25:59.590Z,9.50
2022-10-04T03:28:32.484Z,9.50
2022-10-04T03:31:01.656Z,9.51
2022-10-04T03:33:31.224Z,9.52
2022-10-04T03:36:01.118Z,9.52
2022-10-04T03:38:29.625Z,9.52
2022-10-04T03:41:00.574Z,9.53
2022-10-04T03:43:31.146Z,9.54
2022-10-04T03:46:00.914Z,9.54
2022-10-04T03:48:32.257Z,9.56
2022-10-04T03:51:03.405Z,9.56
2022-10-04T03:53:36.433Z,9.57
2022-10-04T03:56:11.423Z,9.57
2022-10-04T03:58:41.755Z,9.57
2022-10-04T04:01:19.816Z,9.58
2022-10-04T04:04:01.336Z,9.58
2022-10-04T04:06:40.231Z,9.58
2022-10-04T04:09:15.215Z,9.60
2022-10-04T04:11:44.048Z,9.62
2022-10-04T04:14:16.581Z,9.64
2022-10-04T04:16:45.981Z,9.66
2022-10-04T04:19:18.299Z,9.69
2022-10-04T04:21:52.054Z,9.71
2022-10-04T04:24:28.045Z,9.74
2022-10-04T04:26:59.914Z,9.74
2022-10-04T04:29:35.192Z,9.76
2022-10-04T04:32:08.409Z,9.76
2022-10-04T04:34:52.188Z,9.78
2022-10-04T04:37:23.658Z,9.79
2022-10-04T04:39:55.810Z,9.80
2022-10-04T04:42:29.206Z,9.80
2022-10-04T04:45:01.206Z,9.81
2022-10-04T04:47:33.291Z,9.82
2022-10-04T04:50:07.274Z,9.84
2022-10-04T04:52:37.058Z,9.85
2022-10-04T04:55:07.239Z,9.87
2022-10-04T04:57:35.981Z,9.88
2022-10-04T05:00:06.047Z,9.89
2022-10-04T05:02:36.592Z,9.90
2022-10-04T05:05:16.903Z,9.91
2022-10-04T05:07:47.704Z,9.92
2022-10-04T05:10:30.532Z,9.92
2022-10-04T05:13:00.429Z,9.93
2022-10-04T05:15:35.024Z,9.92
2022-10-04T05:18:28.332Z,9.93
2022-10-04T05:21:04.812Z,9.93
2022-10-04T05:23:40.978Z,9.94
2022-10-04T05:26:14.024Z,9.94
2022-10-04T05:28:43.668Z,9.95
2022-10-04T05:31:28.004Z,9.96
2022-10-04T05:33:59.361Z,9.98
2022-10-04T05:36:46.176Z,9.99
2022-10-04T05:39:24.299Z,10.01
2022-10-04T05:41:58.108Z,10.03
2022-10-04T05:44:27.772Z,10.04
2022-10-04T05:47:00.422Z,10.07
2022-10-04T05:49:36.224Z,10.09
2022-10-04T05:52:17.928Z,10.12
2022-10-04T05:54:51.495Z,10.15
2022-10-04T05:57:34.863Z,10.18
2022-10-04T06:00:14.133Z,10.21
2022-10-04T06:03:20.958Z,10.23
2022-10-04T06:05:53.982Z,10.26
2022-10-04T06:08:38.563Z,10.29
2022-10-04T06:11:17.563Z,10.31
2022-10-04T06:14:18.841Z,10.33
2022-10-04T06:17:02.605Z,10.37
2022-10-04T06:19:58.187Z,10.42
2022-10-04T06:22:31.407Z,10.49
2022-10-04T06:25:05.970Z,10.53
2022-10-04T06:27:41.290Z,10.58
2022-10-04T06:30:15.445Z,10.63
2022-10-04T06:33:13.882Z,10.66
2022-10-04T06:36:06.021Z,10.70
2022-10-04T06:39:04.291Z,10.72
2022-10-04T06:42:10.210Z,10.74
2022-10-04T06:45:08.933Z,10.77
2022-10-04T06:47:59.754Z,10.78
2022-10-04T06:50:32.644Z,10.79
2022-10-04T06:53:11.428Z,10.81
2022-10-04T06:56:04.107Z,10.82
2022-10-04T06:58:56.444Z,10.83
2022-10-04T07:01:28.933Z,10.84
2022-10-04T07:04:06.585Z,10.86
2022-10-04T07:06:40.678Z,10.87
2022-10-04T07:09:14.234Z,10.86
2022-10-04T07:11:47.100Z,10.86
2022-10-04T07:14:18.437Z,10.88
2022-10-04T07:16:50.500Z,10.88
2022-10-04T07:19:32.091Z,10.89
2022-10-04T07:22:11.835Z,10.91
2022-10-04T07:24:50.942Z,10.91
2022-10-04T07:27:24.264Z,10.93
2022-10-04T07:29:55.954Z,10.94
2022-10-04T07:32:28.189Z,10.98
2022-10-04T07:35:01.843Z,11.02
2022-10-04T07:37:33.353Z,11.08
2022-10-04T07:40:04.220Z,11.15
2022-10-04T07:42:36.159Z,11.23
2022-10-04T07:45:12.677Z,11.32
2022-10-04T07:47:42.575Z,11.41
2022-10-04T07:50:22.683Z,11.50
2022-10-04T07:52:59.402Z,11.61
2022-10-04T07:55:32.786Z,11.68
2022-10-04T07:58:12.191Z,11.74
2022-10-04T08:00:49.759Z,11.86
2022-10-04T08:03:46.342Z,12.07
2022-10-04T08:06:18.575Z,12.18
2022-10-04T08:09:04.779Z,12.24
2022-10-04T08:11:42.178Z,12.27
2022-10-04T08:14:24.355Z,12.26
2022-10-04T08:17:02.532Z,12.26
2022-10-04T08:19:42.380Z,12.29
2022-10-04T08:22:19.760Z,12.33
2022-10-04T08:25:01.173Z,12.43
2022-10-04T08:28:04.777Z,12.61
2022-10-04T08:30:43.312Z,12.72
2022-10-04T08:33:22.407Z,12.80
2022-10-04T08:35:59.494Z,12.84
2022-10-04T08:38:41.855Z,12.88
2022-10-04T08:41:36.478Z,12.92
2022-10-04T08:44:26.641Z,12.94
2022-10-04T08:47:31.641Z,12.97
2022-10-04T08:50:23.235Z,13.05
2022-10-04T08:52:59.102Z,13.25
2022-10-04T08:55:41.455Z,13.33
2022-10-04T08:58:23.170Z,13.31
2022-10-04T09:01:01.473Z,13.25
2022-10-04T09:04:03.679Z,13.21
2022-10-04T09:06:41.131Z,13.19
2022-10-04T09:09:34.451Z,13.14
2022-10-04T09:12:12.559Z,13.08
2022-10-04T09:15:01.876Z,13.07
2022-10-04T09:17:38.937Z,13.10
2022-10-04T09:20:37.781Z,13.12
2022-10-04T09:23:15.744Z,13.13
2022-10-04T09:25:57.636Z,13.11
2022-10-04T09:29:04.902Z,13.09
2022-10-04T09:32:01.699Z,13.08
2022-10-04T09:34:50.071Z,13.11
2022-10-04T09:37:50.059Z,13.10
2022-10-04T09:40:44.289Z,13.09
2022-10-04T09:43:58.399Z,13.05
2022-10-04T09:46:43.059Z,13.01
2022-10-04T09:49:19.557Z,12.96
2022-10-04T09:52:15.568Z,12.91
2022-10-04T09:55:20.073Z,12.88
2022-10-04T09:58:21.889Z,12.87
2022-10-04T10:00:58.831Z,12.86
2022-10-04T10:03:52.421Z,12.83
2022-10-04T10:06:32.984Z,12.80
2022-10-04T10:09:09.348Z,12.79
2022-10-04T10:12:04.339Z,12.76
2022-10-04T10:15:00.943Z,12.76
2022-10-04T10:17:39.512Z,12.78
2022-10-04T10:20:36.243Z,12.80
2022-10-04T10:23:43.529Z,12.86
2022-10-04T10:26:47.245Z,12.92
2022-10-04T10:29:42.458Z,13.03
2022-10-04T10:32:44.804Z,13.19
2022-10-04T10:35:24.398Z,13.31
2022-10-04T10:38:24.148Z,13.37
2022-10-04T10:41:19.271Z,13.44
2022-10-04T10:44:02.515Z,13.48
2022-10-04T10:46:46.625Z,13.51
2022-10-04T10:49:30.578Z,13.55
2022-10-04T10:52:34.652Z,13.56
2022-10-04T10:55:26.401Z,13.60
2022-10-04T10:58:22.707Z,13.67
2022-10-04T11:01:01.313Z,13.72
2022-10-04T11:04:02.698Z,13.79
2022-10-04T11:06:50.390Z,13.95
2022-10-04T11:09:34.811Z,14.09
2022-10-04T11:12:16.438Z,14.21
2022-10-04T11:15:20.461Z,14.30
2022-10-04T11:18:18.192Z,14.29
2022-10-04T11:21:17.912Z,14.30
2022-10-04T11:24:14.352Z,14.33
2022-10-04T11:27:04.070Z,14.38
2022-10-04T11:29:46.763Z,14.39
2022-10-04T11:33:01.802Z,14.38
2022-10-04T11:35:45.973Z,14.34
2022-10-04T11:38:28.576Z,14.33
2022-10-04T11:41:13.101Z,14.35
2022-10-04T11:44:02.801Z,14.34
2022-10-04T11:46:37.315Z,14.26
2022-10-04T11:49:25.791Z,14.23
2022-10-04T11:52:08.402Z,14.21
2022-10-04T11:55:10.531Z,14.28
2022-10-04T11:57:40.769Z,14.37
2022-10-04T12:00:16.340Z,14.46
2022-10-04T12:03:07.599Z,14.57
2022-10-04T12:06:04.129Z,14.65
2022-10-04T12:08:40.369Z,14.79
2022-10-04T12:11:47.441Z,14.86
2022-10-04T12:14:25.941Z,14.83
2022-10-04T12:17:15.308Z,14.78
2022-10-04T12:19:57.632Z,14.68
2022-10-04T12:22:48.346Z,14.60
2022-10-04T12:26:14.670Z,14.56
2022-10-04T12:29:02.858Z,14.55
2022-10-04T12:31:33.890Z,14.52
2022-10-04T12:34:14.213Z,14.48
2022-10-04T12:36:54.397Z,14.45
2022-10-04T12:39:30.663Z,14.44
2022-10-04T12:42:10.111Z,14.42
2022-10-04T12:44:49.704Z,14.39
2022-10-04T12:47:39.107Z,14.38
2022-10-04T12:50:14.524Z,14.38
2022-10-04T12:52:47.280Z,14.37
2022-10-04T12:55:38.244Z,14.36
2022-10-04T12:58:13.517Z,14.35
2022-10-04T13:00:44.655Z,14.32
2022-10-04T13:03:24.145Z,14.27
2022-10-04T13:06:02.417Z,14.20
2022-10-04T13:08:39.808Z,14.11
2022-10-04T13:11:21.288Z,14.05
2022-10-04T13:14:25.190Z,14.04
2022-10-04T13:19:53.977Z,14.07
2022-10-04T13:22:55.549Z,14.12
2022-10-04T13:25:44.759Z,14.23
2022-10-04T13:28:22.510Z,14.37
2022-10-04T13:30:56.893Z,14.47
2022-10-04T13:33:30.086Z,14.54
2022-10-04T13:36:06.246Z,14.58
2022-10-04T13:38:54.174Z,14.59
2022-10-04T13:41:35.354Z,14.56
2022-10-04T13:44:19.898Z,14.53
2022-10-04T13:47:04.218Z,14.49
2022-10-04T13:49:43.137Z,14.45
2022-10-04T13:52:42.841Z,14.44
2022-10-04T13:55:38.786Z,14.46
2022-10-04T13:58:18.658Z,14.45
2022-10-04T14:01:02.320Z,14.41
2022-10-04T14:03:46.479Z,14.41
2022-10-04T14:06:38.437Z,14.44
2022-10-04T14:09:36.270Z,14.47
2022-10-04T14:12:25.885Z,14.46
2022-10-04T14:15:35.890Z,14.44
2022-10-04T14:18:32.398Z,14.40
2022-10-04T14:21:42.945Z,14.38
2022-10-04T14:24:36.132Z,14.34
2022-10-04T14:27:24.241Z,14.32
2022-10-04T14:30:07.525Z,14.30
2022-10-04T14:32:58.668Z,14.29
2022-10-04T14:35:30.273Z,14.29
2022-10-04T14:38:26.592Z,14.27
2022-10-04T14:41:24.485Z,14.24
2022-10-04T14:44:24.835Z,14.21
2022-10-04T14:47:01.294Z,14.17
2022-10-04T14:49:43.112Z,14.15
2022-10-04T14:52:23.512Z,14.14
2022-10-04T14:54:53.948Z,14.10
2022-10-04T14:57:38.309Z,14.08
2022-10-04T15:00:18.242Z,14.04
2022-10-04T15:03:13.166Z,14.01
2022-10-04T15:06:09.812Z,13.98
2022-10-04T15:08:59.056Z,13.94
2022-10-04T15:11:42.462Z,13.88
2022-10-04T15:14:38.114Z,13.81
2022-10-04T15:17:11.071Z,13.74
2022-10-04T15:19:58.486Z,13.70
2022-10-04T15:22:29.330Z,13.66
2022-10-04T15:24:59.019Z,13.63
2022-10-04T15:27:50.397Z,13.59
2022-10-04T15:30:23.812Z,13.56
2022-10-04T15:33:07.072Z,13.54
2022-10-04T15:35:38.421Z,13.52
2022-10-04T15:38:17.512Z,13.51
2022-10-04T15:40:56.966Z,13.51
2022-10-04T15:43:28.014Z,13.51
2022-10-04T15:46:28.509Z,13.52
2022-10-04T15:49:09.469Z,13.52
2022-10-04T15:52:03.620Z,13.49
2022-10-04T15:55:01.951Z,13.49
2022-10-04T15:57:40.802Z,13.46
2022-10-04T16:00:13.481Z,13.44
2022-10-04T16:02:52.936Z,13.40
2022-10-04T16:05:26.297Z,13.36
2022-10-04T16:08:31.374Z,13.31
2022-10-04T16:11:23.238Z,13.26
2022-10-04T16:14:33.329Z,13.23
2022-10-04T16:17:40.250Z,13.20
2022-10-04T16:20:38.247Z,13.16
2022-10-04T16:23:31.420Z,13.12
2022-10-04T16:26:02.794Z,13.09
2022-10-04T16:29:04.699Z,13.08
2022-10-04T16:31:45.540Z,13.06
2022-10-04T16:34:42.484Z,13.04
2022-10-04T16:37:19.410Z,13.02
2022-10-04T16:40:02.041Z,13.00
2022-10-04T16:42:49.625Z,12.96
2022-10-04T16:45:41.207Z,12.93
2022-10-04T16:48:22.147Z,12.89
2022-10-04T16:51:05.789Z,12.84
2022-10-04T16:53:43.183Z,12.80
2022-10-04T16:56:14.740Z,12.77
2022-10-04T16:58:52.328Z,12.74
2022-10-04T17:02:03.383Z,12.70
2022-10-04T17:04:54.987Z,12.66
2022-10-04T17:07:44.012Z,12.62
2022-10-04T17:10:19.798Z,12.58
2022-10-04T17:12:54.327Z,12.54
2022-10-04T17:15:37.426Z,12.50
2022-10-04T17:18:19.313Z,12.44
2022-10-04T17:20:56.219Z,12.39
2022-10-04T17:23:51.405Z,12.35
2022-10-04T17:26:31.725Z,12.28
2022-10-04T17:29:06.615Z,12.25
2022-10-04T17:31:43.665Z,12.21
2022-10-04T17:34:21.211Z,12.18
2022-10-04T17:36:54.263Z,12.15
2022-10-04T17:39:41.285Z,12.12
2022-10-04T17:42:19.625Z,12.09
2022-10-04T17:45:07.466Z,12.06
2022-10-04T17:47:53.127Z,12.03
2022-10-04T17:50:43.859Z,11.99
2022-10-04T17:53:36.314Z,11.95
2022-10-04T17:56:06.522Z,11.91
2022-10-04T17:58:42.697Z,11.87
2022-10-04T18:01:14.705Z,11.83
2022-10-04T18:03:46.055Z,11.79
2022-10-04T18:06:28.141Z,11.75
2022-10-04T18:08:59.196Z,11.71
2022-10-04T18:11:34.518Z,11.68
2022-10-04T18:14:08.779Z,11.66
2022-10-04T18:16:48.130Z,11.64
2022-10-04T18:19:36.053Z,11.61
2022-10-04T18:22:15.184Z,11.59
2022-10-04T18:24:51.204Z,11.56
2022-10-04T18:27:25.276Z,11.54
2022-10-04T18:30:11.026Z,11.52
2022-10-04T18:32:46.989Z,11.49
2022-10-04T18:35:28.367Z,11.47
2022-10-04T18:38:16.243Z,11.46
2022-10-04T18:40:56.718Z,11.46
2022-10-04T18:43:35.427Z,11.46
2022-10-04T18:46:25.355Z,11.47
2022-10-04T18:49:13.493Z,11.47
2022-10-04T18:51:54.395Z,11.48
2022-10-04T18:54:46.483Z,11.48
2022-10-04T18:57:25.854Z,11.46
2022-10-04T19:00:26.547Z,11.46
2022-10-04T19:03:05.098Z,11.42
2022-10-04T19:05:46.138Z,11.39
2022-10-04T19:08:33.532Z,11.34
2022-10-04T19:11:11.092Z,11.30
2022-10-04T19:13:51.517Z,11.26
2022-10-04T19:16:36.290Z,11.23
2022-10-04T19:19:39.680Z,11.20
2022-10-04T19:22:18.094Z,11.19
2022-10-04T19:25:08.558Z,11.18
2022-10-04T19:27:42.611Z,11.19
2022-10-04T19:30:18.560Z,11.20
2022-10-04T19:33:00.269Z,11.20
2022-10-04T19:35:41.053Z,11.20
2022-10-04T19:38:18.544Z,11.19
2022-10-04T19:40:50.246Z,11.17
2022-10-04T19:43:24.709Z,11.15
2022-10-04T19:46:05.375Z,11.12
2022-10-04T19:48:39.390Z,11.09
2022-10-04T19:51:14.868Z,11.05
2022-10-04T19:53:45.150Z,11.02
2022-10-04T19:56:19.341Z,10.96
2022-10-04T19:58:54.022Z,10.93
2022-10-04T20:01:25.180Z,10.89
2022-10-04T20:04:08.816Z,10.86
2022-10-04T20:06:37.842Z,10.83
2022-10-04T20:09:25.032Z,10.82
2022-10-04T20:11:54.260Z,10.80
2022-10-04T20:15:15.320Z,10.77
2022-10-04T20:17:44.777Z,10.72
2022-10-04T20:20:19.436Z,10.69
2022-10-04T20:22:57.504Z,10.67
2022-10-04T20:26:01.838Z,10.64
2022-10-04T20:28:44.433Z,10.61
2022-10-04T20:31:52.364Z,10.59
2022-10-04T20:34:32.916Z,10.57
2022-10-04T20:37:02.018Z,10.57
2022-10-04T20:40:00.328Z,10.56
2022-10-04T20:42:34.617Z,10.56
2022-10-04T20:45:21.592Z,10.56
2022-10-04T20:47:50.682Z,10.55
2022-10-04T20:50:39.137Z,10.54
2022-10-04T20:53:15.677Z,10.53
2022-10-04T20:55:45.491Z,10.52
2022-10-04T20:58:29.304Z,10.51
2022-10-04T21:00:59.122Z,10.50
2022-10-04T21:03:27.569Z,10.49
2022-10-04T21:06:04.879Z,10.50
2022-10-04T21:08:33.678Z,10.50
2022-10-04T21:11:13.147Z,10.49
2022-10-04T21:13:58.866Z,10.48
2022-10-04T21:16:46.768Z,10.48
2022-10-04T21:19:44.404Z,10.50
2022-10-04T21:22:39.082Z,10.52
2022-10-04T21:25:27.596Z,10.54
2022-10-04T21:28:31.126Z,10.54
2022-10-04T21:31:01.435Z,10.50
2022-10-04T21:33:32.070Z,10.49
2022-10-04T21:36:01.255Z,10.47
2022-10-04T21:38:29.675Z,10.44
2022-10-04T21:40:58.631Z,10.41
2022-10-04T21:43:27.396Z,10.39
2022-10-04T21:45:56.001Z,10.37
2022-10-04T21:48:25.146Z,10.34
2022-10-04T21:50:55.524Z,10.32
2022-10-04T21:53:23.937Z,10.30
2022-10-04T21:55:52.878Z,10.27
2022-10-04T21:58:21.917Z,10.23
2022-10-04T22:00:51.795Z,10.21
2022-10-04T22:03:20.610Z,10.18
2022-10-04T22:05:49.034Z,10.16
2022-10-04T22:08:17.703Z,10.13
2022-10-04T22:10:47.596Z,10.11
2022-10-04T22:13:16.139Z,10.08
2022-10-04T22:15:44.577Z,10.05
2022-10-04T22:18:14.099Z,10.01
2022-10-04T22:20:42.568Z,9.98
2022-10-04T22:23:16.991Z,9.95
2022-10-04T22:25:45.438Z,9.91
2022-10-04T22:28:21.245Z,9.88
2022-10-04T22:30:51.623Z,9.85
2022-10-04T22:33:30.482Z,9.82
2022-10-04T22:36:00.273Z,9.79
2022-10-04T22:38:28.782Z,9.75
2022-10-04T22:40:58.039Z,9.73
2022-10-04T22:43:26.945Z,9.72
2022-10-04T22:45:55.612Z,9.71
2022-10-04T22:48:26.050Z,9.68
2022-10-04T22:50:54.566Z,9.67
2022-10-04T22:53:24.330Z,9.66
2022-10-04T22:55:55.367Z,9.66
2022-10-04T22:58:23.941Z,9.66
2022-10-04T23:00:52.346Z,9.65
2022-10-04T23:03:26.700Z,9.64
2022-10-04T23:05:55.477Z,9.63
2022-10-04T23:08:23.958Z,9.62
2022-10-04T23:10:55.274Z,9.62
2022-10-04T23:13:25.067Z,9.60
2022-10-04T23:15:57.616Z,9.59
2022-10-04T23:18:28.250Z,9.58
2022-10-04T23:20:59.437Z,9.56
2022-10-04T23:23:30.140Z,9.56
2022-10-04T23:25:58.780Z,9.55
2022-10-04T23:28:27.311Z,9.55
2022-10-04T23:31:03.045Z,9.55
2022-10-04T23:33:31.647Z,9.54
2022-10-04T23:36:00.062Z,9.54
2022-10-04T23:38:31.018Z,9.54
2022-10-04T23:41:02.910Z,9.54
2022-10-04T23:43:34.425Z,9.55
2022-10-04T23:46:05.650Z,9.55
2022-10-04T23:48:34.550Z,9.55
2022-10-04T23:51:02.991Z,9.56
2022-10-04T23:53:32.518Z,9.57
2022-10-04T23:56:04.972Z,9.57
2022-10-04T23:58:36.138Z,9.58
